createdAt,value
2022-09-01T00:00:50.339Z,99.90
2022-09-01T00:03:37.562Z,99.90
2022-09-01T00:06:25.420Z,99.90
2022-09-01T00:09:14.608Z,99.90
2022-09-01T00:12:01.376Z,99.90
2022-09-01T00:14:49.762Z,99.90
2022-09-01T00:17:36.415Z,99.90
2022-09-01T00:20:22.904Z,99.90
2022-09-01T00:23:09.557Z,99.90
2022-09-01T00:25:56.238Z,99.90
2022-09-01T00:28:43.194Z,99.90
2022-09-01T00:31:31.408Z,99.90
2022-09-01T00:34:18.527Z,99.90
2022-09-01T00:37:05.436Z,99.90
2022-09-01T00:39:52.152Z,99.90
2022-09-01T00:42:39.819Z,99.90
2022-09-01T00:45:26.539Z,99.90
2022-09-01T00:48:15.063Z,99.90
2022-09-01T00:51:03.060Z,99.90
2022-09-01T00:53:50.156Z,99.90
2022-09-01T00:56:38.691Z,99.90
2022-09-01T00:59:27.526Z,99.90
2022-09-01T01:02:14.503Z,99.90
2022-09-01T01:05:03.258Z,99.90
2022-09-01T01:07:50.344Z,99.90
2022-09-01T01:10:40.158Z,99.90
2022-09-01T01:13:27.584Z,99.90
2022-09-01T01:16:15.931Z,99.90
2022-09-01T01:19:03.408Z,99.90
2022-09-01T01:22:09.024Z,99.90
2022-09-01T01:24:57.138Z,99.90
2022-09-01T01:27:43.835Z,99.90
2022-09-01T01:30:37.010Z,99.90
2022-09-01T01:33:26.695Z,99.90
2022-09-01T01:36:16.451Z,99.90
2022-09-01T01:39:07.800Z,99.90
2022-09-01T01:41:58.944Z,99.90
2022-09-01T01:44:46.476Z,99.90
2022-09-01T01:47:33.217Z,99.90
2022-09-01T01:50:20.132Z,99.90
2022-09-01T01:53:10.910Z,99.90
2022-09-01T01:56:00.048Z,99.90
2022-09-01T01:58:47.947Z,99.90
2022-09-01T02:01:34.726Z,99.90
2022-09-01T02:04:22.528Z,99.90
2022-09-01T02:07:12.350Z,99.90
2022-09-01T02:09:58.900Z,99.90
2022-09-01T02:12:46.345Z,99.90
2022-09-01T02:15:38.773Z,99.90
2022-09-01T02:18:27.973Z,99.90
2022-09-01T02:21:18.535Z,99.90
2022-09-01T02:24:08.506Z,99.90
2022-09-01T02:26:55.525Z,99.90
2022-09-01T02:29:43.555Z,99.90
2022-09-01T02:32:32.097Z,99.90
2022-09-01T02:35:19.075Z,99.90
2022-09-01T02:38:06.284Z,99.90
2022-09-01T02:40:53.694Z,99.90
2022-09-01T02:43:40.127Z,99.90
2022-09-01T02:46:26.780Z,99.90
2022-09-01T02:49:19.787Z,99.90
2022-09-01T02:52:06.280Z,99.90
2022-09-01T02:54:52.544Z,99.90
2022-09-01T02:57:39.036Z,99.90
2022-09-01T03:00:33.507Z,99.90
2022-09-01T03:03:21.825Z,99.90
2022-09-01T03:06:10.248Z,99.90
2022-09-01T03:09:00.327Z,99.90
2022-09-01T03:11:49.371Z,99.90
2022-09-01T03:14:35.803Z,99.90
2022-09-01T03:17:22.340Z,99.90
2022-09-01T03:20:09.920Z,99.90
2022-09-01T03:22:59.199Z,99.90
2022-09-01T03:25:47.439Z,99.90
2022-09-01T03:28:34.048Z,99.90
2022-09-01T03:31:21.522Z,99.90
2022-09-01T03:34:11.047Z,99.90
2022-09-01T03:36:57.834Z,99.90
2022-09-01T03:39:46.413Z,99.90
2022-09-01T03:42:37.136Z,99.90
2022-09-01T03:45:25.751Z,99.90
2022-09-01T03:48:12.765Z,99.90
2022-09-01T03:51:02.611Z,99.90
2022-09-01T03:53:50.613Z,99.90
2022-09-01T03:56:41.588Z,99.90
2022-09-01T03:59:30.003Z,99.90
2022-09-01T04:02:16.890Z,99.90
2022-09-01T04:05:07.757Z,99.90
2022-09-01T04:07:55.952Z,99.90
2022-09-01T04:10:47.849Z,99.90
2022-09-01T04:13:40.959Z,99.90
2022-09-01T04:16:47.204Z,99.90
2022-09-01T04:19:38.493Z,99.90
2022-09-01T04:22:29.234Z,99.90
2022-09-01T04:25:16.285Z,99.90
2022-09-01T04:28:12.898Z,99.90
2022-09-01T04:31:05.842Z,99.90
2022-09-01T04:33:53.745Z,99.90
2022-09-01T04:36:41.790Z,99.90
2022-09-01T04:39:29.410Z,99.90
2022-09-01T04:42:16.577Z,99.90
2022-09-01T04:45:10.002Z,99.90
2022-09-01T04:48:00.899Z,99.90
2022-09-01T04:50:49.433Z,99.90
2022-09-01T04:53:36.558Z,99.90
2022-09-01T04:56:23.639Z,99.90
2022-09-01T04:59:12.086Z,99.90
2022-09-01T05:02:00.680Z,99.90
2022-09-01T05:04:49.949Z,99.90
2022-09-01T05:07:38.070Z,99.90
2022-09-01T05:10:30.068Z,99.90
2022-09-01T05:13:18.583Z,99.90
2022-09-01T05:16:12.921Z,99.90
2022-09-01T05:19:01.502Z,99.90
2022-09-01T05:21:50.531Z,99.90
2022-09-01T05:24:41.911Z,99.90
2022-09-01T05:27:29.560Z,99.90
2022-09-01T05:30:18.022Z,99.90
2022-09-01T05:33:05.053Z,99.90
2022-09-01T05:35:56.506Z,99.90
2022-09-01T05:38:44.753Z,99.90
2022-09-01T05:41:32.861Z,99.90
2022-09-01T05:44:19.330Z,99.90
2022-09-01T05:47:12.167Z,99.90
2022-09-01T05:50:14.263Z,99.90
2022-09-01T05:53:01.357Z,99.90
2022-09-01T05:55:52.713Z,99.90
2022-09-01T06:01:50.249Z,99.90
2022-09-01T06:04:40.665Z,99.90
2022-09-01T06:07:28.631Z,99.90
2022-09-01T06:10:15.867Z,99.90
2022-09-01T06:13:03.777Z,99.90
2022-09-01T06:15:51.165Z,99.90
2022-09-01T06:18:41.106Z,99.90
2022-09-01T06:21:29.100Z,99.90
2022-09-01T06:24:15.711Z,99.90
2022-09-01T06:27:02.881Z,99.90
2022-09-01T06:29:54.767Z,99.90
2022-09-01T06:32:44.159Z,99.90
2022-09-01T06:35:30.649Z,99.90
2022-09-01T06:38:17.589Z,99.90
2022-09-01T06:41:05.891Z,99.90
2022-09-01T06:43:54.075Z,99.90
2022-09-01T06:46:42.144Z,99.90
2022-09-01T06:49:33.077Z,99.90
2022-09-01T06:52:20.885Z,99.90
2022-09-01T06:55:08.175Z,99.90
2022-09-01T06:58:16.877Z,99.90
2022-09-01T07:01:06.712Z,99.90
2022-09-01T07:03:57.433Z,99.90
2022-09-01T07:07:00.495Z,99.90
2022-09-01T07:10:05.947Z,99.90
2022-09-01T07:13:09.006Z,99.90
2022-09-01T07:19:06.572Z,99.90
2022-09-01T07:22:09.683Z,99.90
2022-09-01T07:25:16.708Z,99.90
2022-09-01T07:28:04.075Z,99.90
2022-09-01T07:30:53.124Z,99.90
2022-09-01T07:33:41.793Z,99.90
2022-09-01T07:36:31.552Z,99.90
2022-09-01T07:45:47.695Z,99.90
2022-09-01T07:48:36.945Z,99.90
2022-09-01T07:51:43.418Z,99.90
2022-09-01T07:54:30.267Z,99.90
2022-09-01T07:57:16.779Z,99.90
2022-09-01T08:00:03.411Z,99.90
2022-09-01T08:02:55.172Z,99.90
2022-09-01T08:05:47.581Z,99.90
2022-09-01T08:08:36.626Z,99.90
2022-09-01T08:11:58.180Z,99.90
2022-09-01T08:14:34.180Z,99.90
2022-09-01T08:17:51.553Z,99.90
2022-09-01T08:20:28.191Z,99.90
2022-09-01T08:23:18.139Z,99.90
2022-09-01T08:26:09.052Z,99.90
2022-09-01T08:28:56.177Z,99.90
2022-09-01T08:31:42.601Z,99.90
2022-09-01T08:34:32.773Z,99.90
2022-09-01T08:37:20.375Z,99.90
2022-09-01T08:40:08.234Z,99.90
2022-09-01T08:43:10.888Z,99.90
2022-09-01T08:46:10.693Z,99.50
2022-09-01T08:52:15.226Z,99.40
2022-09-01T08:55:07.126Z,99.20
2022-09-01T08:57:59.136Z,99.30
2022-09-01T09:00:57.925Z,99.40
2022-09-01T09:03:57.049Z,99.40
2022-09-01T09:06:51.408Z,98.80
2022-09-01T09:09:51.113Z,98.50
2022-09-01T09:12:57.613Z,98.00
2022-09-01T09:15:48.311Z,97.40
2022-09-01T09:18:54.728Z,96.50
2022-09-01T09:21:44.580Z,95.70
2022-09-01T09:24:47.314Z,95.90
2022-09-01T09:27:36.458Z,95.70
2022-09-01T09:30:26.512Z,94.70
2022-09-01T09:33:51.343Z,94.30
2022-09-01T09:36:41.700Z,93.70
2022-09-01T09:39:29.486Z,93.30
2022-09-01T09:42:18.043Z,94.20
2022-09-01T09:45:04.963Z,94.30
2022-09-01T09:47:52.408Z,94.50
2022-09-01T09:50:40.530Z,93.90
2022-09-01T09:53:32.612Z,93.10
2022-09-01T09:56:21.108Z,93.10
2022-09-01T09:59:45.785Z,92.70
2022-09-01T10:02:34.604Z,92.40
2022-09-01T10:05:37.429Z,90.50
2022-09-01T10:08:45.509Z,90.00
2022-09-01T10:11:41.344Z,87.90
2022-09-01T10:14:52.348Z,84.60
2022-09-01T10:17:43.630Z,81.70
2022-09-01T10:20:30.703Z,79.90
2022-09-01T10:23:18.482Z,78.80
2022-09-01T10:26:12.330Z,79.90
2022-09-01T10:29:02.800Z,79.60
2022-09-01T10:31:49.403Z,79.10
2022-09-01T10:34:42.032Z,78.70
2022-09-01T10:37:29.257Z,75.00
2022-09-01T10:40:43.827Z,75.60
2022-09-01T10:43:43.135Z,73.10
2022-09-01T10:46:51.023Z,73.90
2022-09-01T10:50:07.428Z,75.00
2022-09-01T10:52:59.180Z,73.10
2022-09-01T10:55:59.059Z,71.40
2022-09-01T11:02:35.807Z,66.80
2022-09-01T11:05:21.349Z,63.90
2022-09-01T11:08:41.090Z,63.50
2022-09-01T11:11:36.131Z,63.30
2022-09-01T11:14:27.452Z,62.60
2022-09-01T11:17:18.559Z,63.40
2022-09-01T11:20:10.477Z,61.00
2022-09-01T11:23:03.798Z,61.10
2022-09-01T11:26:19.152Z,59.80
2022-09-01T11:28:58.496Z,58.70
2022-09-01T11:31:46.603Z,58.80
2022-09-01T11:34:42.095Z,58.90
2022-09-01T11:37:28.817Z,58.60
2022-09-01T11:40:22.633Z,58.50
2022-09-01T11:43:14.944Z,57.50
2022-09-01T11:46:11.509Z,56.70
2022-09-01T11:49:04.564Z,56.80
2022-09-01T11:51:51.269Z,55.30
2022-09-01T11:54:41.533Z,53.70
2022-09-01T11:57:31.545Z,52.50
2022-09-01T12:00:28.545Z,53.40
2022-09-01T12:03:23.599Z,53.90
2022-09-01T12:06:14.254Z,55.10
2022-09-01T12:09:04.095Z,54.20
2022-09-01T12:11:51.311Z,53.80
2022-09-01T12:15:01.964Z,53.90
2022-09-01T12:17:45.110Z,53.60
2022-09-01T12:20:38.535Z,51.90
2022-09-01T12:23:29.135Z,49.00
2022-09-01T12:26:20.099Z,49.00
2022-09-01T12:29:08.041Z,50.30
2022-09-01T12:31:55.862Z,48.50
2022-09-01T12:34:44.704Z,46.80
2022-09-01T12:37:31.456Z,45.80
2022-09-01T12:40:32.650Z,45.00
2022-09-01T12:43:33.355Z,44.10
2022-09-01T12:46:41.373Z,42.00
2022-09-01T12:49:37.284Z,40.60
2022-09-01T12:52:33.868Z,42.40
2022-09-01T12:58:32.317Z,43.90
2022-09-01T13:01:32.357Z,45.20
2022-09-01T13:04:29.876Z,46.90
2022-09-01T13:07:17.010Z,48.20
2022-09-01T13:10:07.274Z,49.90
2022-09-01T13:12:53.843Z,50.50
2022-09-01T13:15:48.204Z,51.90
2022-09-01T13:19:10.366Z,53.20
2022-09-01T13:24:34.921Z,50.20
2022-09-01T13:27:22.210Z,46.90
2022-09-01T13:30:09.520Z,45.00
2022-09-01T13:36:42.598Z,41.00
2022-09-01T13:39:12.602Z,39.50
2022-09-01T13:41:59.056Z,36.90
2022-09-01T13:44:49.578Z,36.30
2022-09-01T13:48:15.073Z,35.60
2022-09-01T13:53:56.872Z,35.50
2022-09-01T13:56:43.856Z,34.60
2022-09-01T13:59:30.899Z,34.00
2022-09-01T14:02:17.649Z,33.20
2022-09-01T14:05:06.105Z,32.90
2022-09-01T14:07:54.527Z,34.50
2022-09-01T14:10:42.895Z,35.80
2022-09-01T14:13:31.227Z,37.00
2022-09-01T14:16:17.954Z,37.60
2022-09-01T14:19:05.140Z,35.00
2022-09-01T14:21:52.000Z,33.80
2022-09-01T14:24:40.940Z,34.90
2022-09-01T14:27:28.221Z,36.50
2022-09-01T14:30:18.478Z,39.00
2022-09-01T14:33:07.789Z,40.40
2022-09-01T14:35:54.479Z,38.80
2022-09-01T14:38:40.979Z,36.30
2022-09-01T14:41:29.017Z,35.70
2022-09-01T14:44:15.341Z,35.50
2022-09-01T14:47:02.130Z,35.30
2022-09-01T14:49:52.426Z,35.30
2022-09-01T14:52:39.032Z,36.10
2022-09-01T14:55:28.313Z,36.20
2022-09-01T14:57:59.802Z,37.10
2022-09-01T15:00:31.709Z,39.80
2022-09-01T15:03:00.178Z,40.50
2022-09-01T15:05:28.559Z,40.90
2022-09-01T15:07:56.701Z,40.90
2022-09-01T15:10:27.215Z,40.20
2022-09-01T15:12:58.837Z,40.30
2022-09-01T15:15:28.069Z,41.60
2022-09-01T15:17:57.427Z,42.00
2022-09-01T15:20:47.379Z,43.20
2022-09-01T15:23:16.712Z,44.20
2022-09-01T15:25:45.480Z,44.70
2022-09-01T15:28:15.621Z,45.60
2022-09-01T15:30:46.512Z,45.70
2022-09-01T15:33:16.206Z,46.10
2022-09-01T15:35:44.996Z,45.20
2022-09-01T15:38:19.554Z,45.60
2022-09-01T15:40:57.073Z,46.80
2022-09-01T15:43:29.027Z,46.60
2022-09-01T15:45:58.289Z,46.90
2022-09-01T15:48:27.524Z,47.50
2022-09-01T15:51:03.657Z,47.10
2022-09-01T15:53:31.812Z,46.90
2022-09-01T15:55:59.875Z,47.50
2022-09-01T15:58:39.087Z,48.00
2022-09-01T16:01:12.830Z,48.50
2022-09-01T16:03:41.349Z,48.70
2022-09-01T16:06:10.203Z,48.40
2022-09-01T16:08:38.422Z,48.40
2022-09-01T16:11:09.831Z,48.50
2022-09-01T16:13:40.375Z,49.00
2022-09-01T16:16:21.404Z,49.30
2022-09-01T16:18:56.098Z,49.40
2022-09-01T16:21:34.896Z,49.60
2022-09-01T16:24:08.825Z,49.80
2022-09-01T16:26:38.092Z,49.60
2022-09-01T16:29:14.063Z,49.90
2022-09-01T16:31:42.957Z,50.10
2022-09-01T16:34:18.232Z,50.60
2022-09-01T16:37:00.671Z,50.90
2022-09-01T16:39:39.277Z,50.80
2022-09-01T16:42:19.073Z,50.90
2022-09-01T16:45:03.073Z,50.60
2022-09-01T16:47:44.544Z,51.00
2022-09-01T16:50:23.887Z,51.20
2022-09-01T16:53:10.081Z,51.50
2022-09-01T16:55:46.137Z,51.80
2022-09-01T16:58:22.576Z,51.80
2022-09-01T17:01:02.090Z,51.80
2022-09-01T17:03:42.735Z,52.00
2022-09-01T17:06:20.791Z,52.50
2022-09-01T17:08:55.383Z,52.10
2022-09-01T17:11:32.846Z,52.50
2022-09-01T17:14:02.864Z,52.60
2022-09-01T17:16:37.248Z,51.80
2022-09-01T17:19:07.826Z,52.20
2022-09-01T17:21:41.772Z,52.40
2022-09-01T17:24:31.975Z,52.10
2022-09-01T17:27:07.644Z,52.90
2022-09-01T17:29:43.514Z,52.80
2022-09-01T17:32:36.701Z,52.60
2022-09-01T17:35:15.055Z,52.80
2022-09-01T17:37:55.911Z,53.10
2022-09-01T17:40:33.795Z,53.20
2022-09-01T17:43:09.744Z,53.50
2022-09-01T17:45:51.180Z,53.70
2022-09-01T17:48:27.655Z,53.90
2022-09-01T17:51:06.258Z,53.70
2022-09-01T17:53:44.071Z,54.00
2022-09-01T17:56:30.483Z,54.60
2022-09-01T17:59:11.094Z,54.90
2022-09-01T18:01:47.678Z,54.90
2022-09-01T18:04:38.670Z,55.10
2022-09-01T18:07:15.942Z,55.50
2022-09-01T18:09:48.486Z,55.80
2022-09-01T18:12:22.908Z,56.20
2022-09-01T18:14:58.120Z,56.60
2022-09-01T18:17:31.457Z,56.90
2022-09-01T18:20:08.197Z,57.10
2022-09-01T18:22:41.708Z,57.40
2022-09-01T18:25:18.426Z,57.90
2022-09-01T18:27:50.373Z,58.20
2022-09-01T18:30:36.405Z,59.00
2022-09-01T18:33:21.938Z,59.60
2022-09-01T18:36:02.982Z,59.90
2022-09-01T18:38:40.921Z,60.20
2022-09-01T18:41:30.246Z,60.80
2022-09-01T18:44:05.805Z,61.40
2022-09-01T18:46:40.732Z,61.40
2022-09-01T18:49:17.964Z,61.60
2022-09-01T18:51:57.388Z,62.40
2022-09-01T18:54:34.541Z,62.70
2022-09-01T18:57:04.847Z,62.60
2022-09-01T18:59:50.341Z,63.00
2022-09-01T19:02:31.678Z,63.10
2022-09-01T19:05:03.457Z,63.60
2022-09-01T19:07:42.694Z,63.70
2022-09-01T19:10:18.693Z,64.60
2022-09-01T19:12:55.054Z,64.00
2022-09-01T19:15:31.327Z,63.90
2022-09-01T19:18:12.624Z,64.50
2022-09-01T19:20:48.150Z,64.50
2022-09-01T19:23:26.089Z,65.40
2022-09-01T19:26:00.259Z,64.80
2022-09-01T19:28:39.937Z,64.80
2022-09-01T19:31:17.945Z,64.80
2022-09-01T19:33:51.852Z,64.60
2022-09-01T19:36:24.970Z,64.70
2022-09-01T19:38:54.833Z,65.00
2022-09-01T19:41:28.483Z,65.30
2022-09-01T19:44:05.297Z,65.20
2022-09-01T19:46:40.975Z,65.20
2022-09-01T19:49:18.294Z,65.30
2022-09-01T19:51:54.875Z,65.10
2022-09-01T19:54:30.619Z,65.30
2022-09-01T19:57:09.897Z,65.40
2022-09-01T19:59:51.003Z,65.70
2022-09-01T20:02:27.441Z,66.10
2022-09-01T20:05:03.598Z,66.50
2022-09-01T20:07:37.290Z,66.80
2022-09-01T20:10:23.252Z,67.00
2022-09-01T20:13:01.774Z,67.30
2022-09-01T20:15:36.077Z,67.40
2022-09-01T20:18:08.836Z,67.70
2022-09-01T20:20:44.962Z,67.90
2022-09-01T20:23:22.661Z,68.00
2022-09-01T20:26:04.553Z,68.10
2022-09-01T20:28:45.353Z,68.30
2022-09-01T20:31:22.924Z,68.40
2022-09-01T20:33:56.150Z,68.50
2022-09-01T20:36:30.545Z,69.00
2022-09-01T20:39:21.065Z,69.90
2022-09-01T20:41:58.213Z,69.20
2022-09-01T20:44:41.886Z,69.50
2022-09-01T20:47:10.221Z,69.50
2022-09-01T20:49:39.772Z,69.80
2022-09-01T20:52:15.168Z,69.90
2022-09-01T20:54:51.186Z,69.90
2022-09-01T20:57:33.487Z,70.10
2022-09-01T21:00:07.946Z,71.30
2022-09-01T21:02:55.413Z,70.60
2022-09-01T21:05:32.056Z,70.70
2022-09-01T21:08:20.887Z,70.90
2022-09-01T21:10:58.121Z,71.50
2022-09-01T21:13:45.213Z,71.50
2022-09-01T21:16:21.617Z,71.60
2022-09-01T21:18:59.072Z,72.00
2022-09-01T21:21:36.074Z,72.40
2022-09-01T21:24:04.669Z,72.50
2022-09-01T21:26:36.340Z,72.50
2022-09-01T21:29:25.556Z,72.70
2022-09-01T21:31:53.727Z,73.00
2022-09-01T21:34:21.761Z,73.30
2022-09-01T21:36:49.845Z,72.60
2022-09-01T21:39:21.857Z,72.80
2022-09-01T21:41:49.971Z,72.70
2022-09-01T21:44:19.403Z,72.50
2022-09-01T21:46:47.574Z,72.70
2022-09-01T21:49:15.643Z,72.50
2022-09-01T21:51:43.684Z,72.70
2022-09-01T21:54:11.730Z,73.00
2022-09-01T21:56:39.815Z,73.30
2022-09-01T21:59:07.826Z,73.30
2022-09-01T22:01:37.399Z,73.60
2022-09-01T22:04:06.027Z,73.50
2022-09-01T22:06:34.447Z,74.00
2022-09-01T22:09:03.295Z,74.30
2022-09-01T22:11:48.862Z,74.40
2022-09-01T22:14:16.924Z,74.20
2022-09-01T22:16:46.847Z,74.60
2022-09-01T22:19:15.268Z,75.50
2022-09-01T22:21:43.562Z,75.90
2022-09-01T22:24:11.984Z,75.90
2022-09-01T22:26:40.249Z,75.70
2022-09-01T22:29:09.009Z,76.40
2022-09-01T22:31:39.459Z,77.00
2022-09-01T22:34:09.136Z,77.10
2022-09-01T22:36:40.604Z,76.80
2022-09-01T22:39:10.755Z,77.30
2022-09-01T22:41:42.509Z,78.00
2022-09-01T22:44:11.541Z,78.00
2022-09-01T22:46:40.473Z,78.20
2022-09-01T22:49:10.919Z,78.60
2022-09-01T22:51:40.004Z,79.20
2022-09-01T22:54:09.556Z,79.50
2022-09-01T22:56:40.225Z,79.20
2022-09-01T22:59:10.765Z,79.10
2022-09-01T23:01:42.573Z,79.40
2022-09-01T23:04:14.252Z,79.50
2022-09-01T23:06:44.925Z,80.00
2022-09-01T23:09:14.008Z,80.30
2022-09-01T23:11:42.414Z,80.30
2022-09-01T23:14:10.945Z,80.50
2022-09-01T23:16:39.326Z,83.10
2022-09-01T23:19:07.756Z,83.10
2022-09-01T23:21:39.589Z,82.70
2022-09-01T23:24:08.255Z,83.60
2022-09-01T23:26:36.730Z,83.00
2022-09-01T23:29:05.951Z,83.20
2022-09-01T23:31:36.833Z,83.50
2022-09-01T23:34:06.955Z,83.50
2022-09-01T23:36:37.773Z,83.90
2022-09-01T23:39:06.288Z,83.60
2022-09-01T23:41:35.903Z,83.90
2022-09-01T23:44:06.335Z,84.70
2022-09-01T23:46:37.921Z,84.00
2022-09-01T23:49:06.315Z,84.20
2022-09-01T23:51:35.285Z,84.30
2022-09-01T23:54:04.956Z,84.30
2022-09-01T23:56:33.349Z,84.30
2022-09-01T23:59:01.875Z,84.10
